createdAt,value
2022-09-03T00:02:03.246Z,16.6
2022-09-03T00:08:23.329Z,16.55
2022-09-03T00:14:46.184Z,16.52
2022-09-03T00:21:06.149Z,16.47
2022-09-03T00:27:29.190Z,16.35
2022-09-03T00:33:49.159Z,16.23
2022-09-03T00:40:12.138Z,16.11
2022-09-03T00:46:32.226Z,16.05
2022-09-03T00:52:55.152Z,16.02
2022-09-03T00:59:15.164Z,16.02
2022-09-03T01:05:38.161Z,16.05
2022-09-03T01:11:58.173Z,16.02
2022-09-03T01:18:21.173Z,15.96
2022-09-03T01:24:41.198Z,15.87
2022-09-03T01:31:04.248Z,15.78
2022-09-03T01:37:24.172Z,15.76
2022-09-03T01:43:47.173Z,15.76
2022-09-03T01:50:07.155Z,15.73
2022-09-03T01:56:30.169Z,15.7
2022-09-03T02:02:50.210Z,15.68
2022-09-03T02:09:13.163Z,15.69
2022-09-03T02:15:33.190Z,15.66
2022-09-03T02:21:56.133Z,15.65
2022-09-03T02:28:17.535Z,15.59
2022-09-03T02:34:39.152Z,15.56
2022-09-03T02:40:59.205Z,15.52
2022-09-03T02:47:22.156Z,15.46
2022-09-03T02:53:42.159Z,15.37
2022-09-03T03:00:05.179Z,15.3
2022-09-03T03:06:25.150Z,15.24
2022-09-03T03:12:48.177Z,15.17
2022-09-03T03:19:08.156Z,15.16
2022-09-03T03:25:31.167Z,15.15
2022-09-03T03:31:51.205Z,15.1
2022-09-03T03:38:14.175Z,15.07
2022-09-03T03:54:22.111Z,15.07
2022-09-03T04:00:42.156Z,15.15
2022-09-03T04:07:05.170Z,15.19
2022-09-03T04:13:25.150Z,15.23
2022-09-03T04:19:48.156Z,15.29
2022-09-03T04:26:08.181Z,15.29
2022-09-03T04:32:31.157Z,15.32
2022-09-03T04:38:51.142Z,15.34
2022-09-03T04:45:14.163Z,15.36
2022-09-03T04:51:34.146Z,15.38
2022-09-03T04:57:57.172Z,15.47
2022-09-03T05:04:17.165Z,15.54
2022-09-03T05:10:40.159Z,15.59
2022-09-03T05:17:00.246Z,15.66
2022-09-03T05:23:23.166Z,15.76
2022-09-03T05:29:43.181Z,15.86
2022-09-03T05:36:06.164Z,16.02
2022-09-03T05:42:26.156Z,16.14
2022-09-03T05:48:49.158Z,16.26
2022-09-03T05:55:12.848Z,16.4
2022-09-03T06:01:32.191Z,16.54
2022-09-03T06:07:52.148Z,16.68
2022-09-03T06:14:15.155Z,16.84
2022-09-03T06:20:37.256Z,17
2022-09-03T06:26:58.140Z,17.16
2022-09-03T06:33:18.181Z,17.33
2022-09-03T06:39:41.240Z,17.51
2022-09-03T06:46:01.206Z,17.75
2022-09-03T06:52:24.162Z,17.97
2022-09-03T06:58:44.148Z,18.14
2022-09-03T07:05:07.745Z,18.31
2022-09-03T07:11:27.178Z,18.5
2022-09-03T07:17:50.151Z,18.7
2022-09-03T07:24:10.189Z,18.89
2022-09-03T07:30:33.141Z,18.96
2022-09-03T07:36:53.205Z,18.96
2022-09-03T07:43:16.173Z,18.94
2022-09-03T07:49:36.199Z,18.94
2022-09-03T07:55:59.171Z,18.93
2022-09-03T08:02:19.172Z,18.91
2022-09-03T08:08:42.199Z,18.84
2022-09-03T08:15:02.155Z,18.51
2022-09-03T08:21:25.199Z,18.13
2022-09-03T08:27:45.254Z,17.89
2022-09-03T08:34:08.169Z,17.71
2022-09-03T08:40:28.200Z,17.69
2022-09-03T08:46:51.205Z,17.66
2022-09-03T08:53:11.165Z,17.72
2022-09-03T08:59:34.190Z,17.82
2022-09-03T09:05:54.166Z,17.9
2022-09-03T09:29:55.695Z,18.38
2022-09-03T09:36:15.155Z,18.68
2022-09-03T09:42:38.197Z,19.04
2022-09-03T09:48:58.201Z,19.39
2022-09-03T09:55:21.164Z,19.7
2022-09-03T10:01:41.281Z,20.24
2022-09-03T10:08:04.154Z,20.77
2022-09-03T10:14:24.192Z,21.16
2022-09-03T10:20:47.139Z,21.41
2022-09-03T10:27:07.146Z,21.58
2022-09-03T10:33:30.231Z,21.83
2022-09-03T10:39:52.258Z,22.61
2022-09-03T10:46:13.216Z,23.26
2022-09-03T10:52:33.168Z,23.43
2022-09-03T10:58:56.160Z,23.3
2022-09-03T11:05:16.212Z,23.26
2022-09-03T11:11:39.181Z,23.47
2022-09-03T11:17:59.190Z,23.63
2022-09-03T11:24:22.158Z,23.73
2022-09-03T11:30:42.174Z,23.96
2022-09-03T11:37:05.220Z,24.35
2022-09-03T11:43:25.160Z,24.38
2022-09-03T11:49:48.187Z,24.2
2022-09-03T11:56:08.161Z,23.98
2022-09-03T12:02:31.228Z,24.26
2022-09-03T12:08:51.172Z,24.67
2022-09-03T12:15:14.144Z,24.62
2022-09-03T12:21:34.175Z,25.06
2022-09-03T12:27:57.162Z,25.71
2022-09-03T12:34:17.154Z,26.35
2022-09-03T12:41:23.217Z,26.74
2022-09-03T12:53:23.179Z,27.43
2022-09-03T12:59:43.153Z,27.64
2022-09-03T13:06:06.151Z,27.79
2022-09-03T13:12:26.166Z,28.04
2022-09-03T13:18:49.153Z,28.33
2022-09-03T13:25:09.162Z,28.5
2022-09-03T13:31:32.167Z,28.33
2022-09-03T13:37:52.163Z,28
2022-09-03T13:44:15.178Z,28.19
2022-09-03T13:50:35.148Z,27.97
2022-09-03T13:56:58.181Z,27.77
2022-09-03T14:03:18.155Z,27.88
2022-09-03T14:09:41.156Z,27.96
2022-09-03T14:16:01.174Z,28.07
2022-09-03T14:22:24.145Z,28.3
2022-09-03T14:28:44.191Z,28.59
2022-09-03T14:35:07.147Z,28.51
2022-09-03T14:41:27.141Z,28.03
2022-09-03T14:47:50.169Z,27.57
2022-09-03T14:54:10.142Z,27.32
2022-09-03T15:17:16.152Z,27.16
2022-09-03T15:23:39.149Z,26.81
2022-09-03T15:29:59.174Z,26.5
2022-09-03T15:36:22.143Z,26.23
2022-09-03T15:42:42.149Z,25.98
2022-09-03T15:49:05.157Z,25.73
2022-09-03T15:55:25.145Z,25.59
2022-09-03T16:01:48.169Z,25.43
2022-09-03T16:08:08.148Z,25.18
2022-09-03T16:14:31.150Z,24.75
2022-09-03T16:20:51.163Z,24.27
2022-09-03T16:27:14.157Z,23.72
2022-09-03T16:33:34.180Z,23.11
2022-09-03T16:39:57.263Z,22.71
2022-09-03T16:46:17.258Z,22.3
2022-09-03T16:52:40.152Z,21.95
2022-09-03T16:59:00.159Z,21.67
2022-09-03T17:05:23.168Z,21.48
2022-09-03T17:11:43.148Z,21.27
2022-09-03T17:18:06.148Z,21.16
2022-09-03T17:24:26.191Z,21.12
2022-09-03T17:30:49.146Z,20.97
2022-09-03T17:37:09.168Z,20.9
2022-09-03T17:43:32.143Z,20.86
2022-09-03T17:49:52.178Z,20.88
2022-09-03T17:56:15.144Z,20.91
2022-09-03T18:02:36.137Z,20.9
2022-09-03T18:08:59.167Z,20.76
2022-09-03T18:15:19.145Z,20.51
2022-09-03T18:21:42.166Z,20.23
2022-09-03T18:28:02.150Z,20
2022-09-03T18:34:25.144Z,19.8
2022-09-03T18:40:45.168Z,19.68
2022-09-03T18:53:29.761Z,19.43
2022-09-03T18:59:51.142Z,19.32
2022-09-03T19:06:11.135Z,19.22
2022-09-03T19:12:34.159Z,19.14
2022-09-03T19:18:54.136Z,19.06
2022-09-03T19:25:17.165Z,18.97
2022-09-03T19:31:37.200Z,18.86
2022-09-03T19:38:00.304Z,18.8
2022-09-03T19:44:20.143Z,18.78
2022-09-03T19:50:43.152Z,18.75
2022-09-03T19:57:03.156Z,18.68
2022-09-03T20:03:26.141Z,18.59
2022-09-03T20:09:46.164Z,18.48
2022-09-03T20:16:09.245Z,18.43
2022-09-03T20:22:29.169Z,18.42
2022-09-03T20:28:52.163Z,18.37
2022-09-03T20:35:12.158Z,18.3
2022-09-03T20:58:36.286Z,18.15
2022-09-03T21:04:59.156Z,18.12
2022-09-03T21:11:19.141Z,18.1
2022-09-03T21:17:42.168Z,18.02
2022-09-03T21:24:02.157Z,17.96
2022-09-03T21:30:25.174Z,17.92
2022-09-03T21:36:45.157Z,17.87
2022-09-03T21:43:08.147Z,17.8
2022-09-03T21:49:28.180Z,17.76
2022-09-03T21:55:51.146Z,17.74
2022-09-03T22:20:05.137Z,17.58
2022-09-03T22:26:25.151Z,17.48
2022-09-03T22:32:48.140Z,17.39
2022-09-03T22:39:08.164Z,17.33
2022-09-03T22:45:31.153Z,17.31
2022-09-03T22:51:51.158Z,17.31
2022-09-03T22:58:14.157Z,17.3
2022-09-03T23:04:34.187Z,17.28
2022-09-03T23:10:57.146Z,17.24
2022-09-03T23:17:17.161Z,17.23
2022-09-03T23:23:36.160Z,17.21
2022-09-03T23:29:56.170Z,17.18
2022-09-03T23:36:31.576Z,17.14
2022-09-03T23:42:39.140Z,17.1
2022-09-03T23:49:02.165Z,17.05
2022-09-03T23:55:22.140Z,16.99
